createdAt,value
2018-05-12T00:01:06.202Z,941.40
2018-05-12T00:02:14.175Z,941.39
2018-05-12T00:03:22.218Z,941.40
2018-05-12T00:04:30.291Z,941.36
2018-05-12T00:05:38.354Z,941.34
2018-05-12T00:06:46.510Z,941.37
2018-05-12T00:07:54.471Z,941.35
2018-05-12T00:09:02.531Z,941.38
2018-05-12T00:10:10.610Z,941.34
2018-05-12T00:11:18.674Z,941.33
2018-05-12T00:12:26.830Z,941.34
2018-05-12T00:13:34.779Z,941.34
2018-05-12T00:14:42.848Z,941.35
2018-05-12T00:15:50.912Z,941.30
2018-05-12T00:16:58.961Z,941.33
2018-05-12T00:18:07.124Z,941.30
2018-05-12T00:19:15.104Z,941.29
2018-05-12T00:20:23.142Z,941.27
2018-05-12T00:21:31.219Z,941.27
2018-05-12T00:22:39.276Z,941.26
2018-05-12T00:23:47.446Z,941.22
2018-05-12T00:24:55.392Z,941.24
2018-05-12T00:26:03.459Z,941.22
2018-05-12T00:27:11.498Z,941.23
2018-05-12T00:28:19.595Z,941.24
2018-05-12T00:29:27.753Z,941.23
2018-05-12T00:30:35.706Z,941.24
2018-05-12T00:31:43.769Z,941.25
2018-05-12T00:32:51.808Z,941.23
2018-05-12T00:33:59.871Z,941.24
2018-05-12T00:35:08.036Z,941.24
2018-05-12T00:36:16.008Z,941.23
2018-05-12T00:37:24.080Z,941.19
2018-05-12T00:38:32.114Z,941.20
2018-05-12T00:39:40.203Z,941.20
2018-05-12T00:40:48.359Z,941.17
2018-05-12T00:41:56.322Z,941.16
2018-05-12T00:43:04.487Z,941.14
2018-05-12T00:44:12.429Z,941.18
2018-05-12T00:45:20.496Z,941.13
2018-05-12T00:46:28.678Z,941.14
2018-05-12T00:47:36.617Z,941.14
2018-05-12T00:48:44.691Z,941.13
2018-05-12T00:49:52.751Z,941.08
2018-05-12T00:51:00.804Z,941.11
2018-05-12T00:52:08.980Z,941.09
2018-05-12T00:53:16.936Z,941.10
2018-05-12T00:54:24.980Z,941.09
2018-05-12T00:55:33.042Z,941.07
2018-05-12T00:56:41.119Z,941.09
2018-05-12T00:57:49.266Z,941.10
2018-05-12T00:58:57.244Z,941.12
2018-05-12T01:00:05.303Z,941.11
2018-05-12T01:01:13.366Z,941.13
2018-05-12T01:02:21.435Z,941.08
2018-05-12T01:03:29.589Z,941.12
2018-05-12T01:04:37.549Z,941.10
2018-05-12T01:05:45.608Z,941.11
2018-05-12T01:06:53.660Z,941.08
2018-05-12T01:08:01.693Z,941.06
2018-05-12T01:09:09.887Z,941.02
2018-05-12T01:10:17.844Z,941.01
2018-05-12T01:11:25.910Z,941.01
2018-05-12T01:12:33.983Z,941.03
2018-05-12T01:13:42.189Z,941.03
2018-05-12T01:14:50.190Z,941.01
2018-05-12T01:15:58.141Z,941.01
2018-05-12T01:17:06.207Z,941.01
2018-05-12T01:18:14.263Z,941.02
2018-05-12T01:19:22.331Z,941.02
2018-05-12T01:20:30.494Z,941.03
2018-05-12T01:21:38.463Z,940.99
2018-05-12T01:22:46.531Z,941.00
2018-05-12T01:23:54.573Z,940.96
2018-05-12T01:25:02.656Z,940.93
2018-05-12T01:26:10.805Z,940.91
2018-05-12T01:27:18.758Z,940.89
2018-05-12T01:28:26.826Z,940.89
2018-05-12T01:29:34.886Z,940.90
2018-05-12T01:30:42.936Z,940.86
2018-05-12T01:31:51.109Z,940.90
2018-05-12T01:32:59.080Z,940.87
2018-05-12T01:34:07.125Z,940.85
2018-05-12T01:35:15.212Z,940.85
2018-05-12T01:36:23.250Z,940.82
2018-05-12T01:37:31.388Z,940.79
2018-05-12T01:38:39.385Z,940.79
2018-05-12T01:39:47.446Z,940.81
2018-05-12T01:40:55.491Z,940.79
2018-05-12T01:42:03.561Z,940.82
2018-05-12T01:43:11.680Z,940.78
2018-05-12T01:44:19.688Z,940.80
2018-05-12T01:45:27.753Z,940.79
2018-05-12T01:46:35.784Z,940.82
2018-05-12T01:47:43.865Z,940.83
2018-05-12T01:48:51.992Z,940.82
2018-05-12T01:49:59.996Z,940.84
2018-05-12T01:51:08.049Z,940.81
2018-05-12T01:52:16.107Z,940.82
2018-05-12T01:53:24.165Z,940.88
2018-05-12T01:54:32.317Z,940.89
2018-05-12T01:55:40.300Z,940.88
2018-05-12T01:56:48.349Z,940.94
2018-05-12T01:57:56.398Z,940.94
2018-05-12T01:59:04.471Z,940.92
2018-05-12T02:00:12.635Z,940.93
2018-05-12T02:01:20.589Z,940.95
2018-05-12T02:02:28.656Z,940.94
2018-05-12T02:03:36.723Z,940.94
2018-05-12T02:04:44.787Z,940.94
2018-05-12T02:05:52.973Z,940.93
2018-05-12T02:07:00.912Z,940.94
2018-05-12T02:08:08.961Z,940.92
2018-05-12T02:09:17.028Z,940.97
2018-05-12T02:10:25.072Z,940.96
2018-05-12T02:11:33.231Z,940.98
2018-05-12T02:12:41.184Z,940.93
2018-05-12T02:13:49.280Z,941.00
2018-05-12T02:14:57.337Z,940.98
2018-05-12T02:16:05.375Z,940.99
2018-05-12T02:17:13.564Z,940.97
2018-05-12T02:18:21.470Z,940.97
2018-05-12T02:19:29.554Z,940.99
2018-05-12T02:20:37.629Z,941.01
2018-05-12T02:21:45.677Z,940.96
2018-05-12T02:22:53.985Z,941.00
2018-05-12T02:24:01.832Z,941.05
2018-05-12T02:25:09.869Z,941.09
2018-05-12T02:26:17.955Z,941.07
2018-05-12T02:27:26.003Z,941.10
2018-05-12T02:28:34.146Z,941.07
2018-05-12T02:29:42.104Z,941.04
2018-05-12T02:30:50.182Z,941.06
2018-05-12T02:31:58.224Z,941.07
2018-05-12T02:33:06.301Z,941.04
2018-05-12T02:34:14.448Z,941.05
2018-05-12T02:35:22.408Z,941.08
2018-05-12T02:36:30.474Z,941.05
2018-05-12T02:37:38.543Z,941.09
2018-05-12T02:38:46.598Z,941.08
2018-05-12T02:39:54.757Z,941.09
2018-05-12T02:41:02.728Z,941.11
2018-05-12T02:42:10.778Z,941.09
2018-05-12T02:43:18.842Z,941.08
2018-05-12T02:44:26.901Z,941.08
2018-05-12T02:45:35.073Z,941.10
2018-05-12T02:46:43.037Z,941.07
2018-05-12T02:47:51.080Z,941.11
2018-05-12T02:48:59.146Z,941.08
2018-05-12T02:50:07.195Z,941.12
2018-05-12T02:51:15.365Z,941.12
2018-05-12T02:52:23.330Z,941.09
2018-05-12T02:53:31.375Z,941.08
2018-05-12T02:54:39.432Z,941.08
2018-05-12T02:55:47.521Z,941.03
2018-05-12T02:56:55.662Z,941.02
2018-05-12T02:58:03.619Z,941.00
2018-05-12T02:59:11.669Z,940.98
2018-05-12T03:00:19.744Z,941.01
2018-05-12T03:01:27.809Z,940.99
2018-05-12T03:02:35.967Z,940.98
2018-05-12T03:03:43.931Z,940.95
2018-05-12T03:04:51.973Z,940.95
2018-05-12T03:06:00.059Z,940.97
2018-05-12T03:07:08.113Z,940.96
2018-05-12T03:08:16.405Z,940.91
2018-05-12T03:09:24.235Z,940.97
2018-05-12T03:10:32.272Z,940.95
2018-05-12T03:11:40.359Z,940.97
2018-05-12T03:12:48.416Z,940.98
2018-05-12T03:13:56.573Z,940.98
2018-05-12T03:15:05.217Z,941.02
2018-05-12T03:16:12.588Z,941.02
2018-05-12T03:17:20.664Z,941.00
2018-05-12T03:18:28.694Z,941.03
2018-05-12T03:19:36.876Z,941.00
2018-05-12T03:20:44.838Z,941.04
2018-05-12T03:21:52.910Z,941.03
2018-05-12T03:23:00.946Z,941.01
2018-05-12T03:24:09.005Z,941.02
2018-05-12T03:25:17.164Z,941.03
2018-05-12T03:26:25.117Z,941.03
2018-05-12T03:27:33.200Z,941.01
2018-05-12T03:28:41.238Z,941.06
2018-05-12T03:29:49.319Z,941.01
2018-05-12T03:30:57.466Z,941.01
2018-05-12T03:32:05.443Z,940.99
2018-05-12T03:33:13.488Z,941.03
2018-05-12T03:34:21.529Z,940.97
2018-05-12T03:35:29.603Z,940.98
2018-05-12T03:36:38.221Z,940.96
2018-05-12T03:37:45.770Z,940.98
2018-05-12T03:38:53.776Z,940.95
2018-05-12T03:40:01.827Z,940.94
2018-05-12T03:41:09.904Z,940.99
2018-05-12T03:42:18.068Z,941.00
2018-05-12T03:43:26.019Z,941.00
2018-05-12T03:44:34.147Z,940.98
2018-05-12T03:45:42.151Z,940.99
2018-05-12T03:46:50.216Z,941.06
2018-05-12T03:47:59.388Z,941.08
2018-05-12T03:49:06.962Z,941.03
2018-05-12T03:50:14.386Z,941.06
2018-05-12T03:51:22.507Z,941.07
2018-05-12T03:52:30.525Z,941.09
2018-05-12T03:53:38.672Z,941.11
2018-05-12T03:54:48.000Z,941.12
2018-05-12T03:55:54.683Z,941.15
2018-05-12T03:57:02.739Z,941.16
2018-05-12T03:58:10.819Z,941.22
2018-05-12T03:59:18.978Z,941.18
2018-05-12T04:00:26.942Z,941.19
2018-05-12T04:01:34.986Z,941.22
2018-05-12T04:02:43.062Z,941.22
2018-05-12T04:03:51.123Z,941.21
2018-05-12T04:04:59.286Z,941.26
2018-05-12T04:06:07.827Z,941.25
2018-05-12T04:07:15.762Z,941.26
2018-05-12T04:08:23.838Z,941.26
2018-05-12T04:09:31.908Z,941.22
2018-05-12T04:10:40.455Z,941.23
2018-05-12T04:11:47.621Z,941.26
2018-05-12T04:12:55.579Z,941.22
2018-05-12T04:14:03.643Z,941.21
2018-05-12T04:15:11.697Z,941.26
2018-05-12T04:16:21.896Z,941.28
2018-05-12T04:17:36.716Z,941.27
2018-05-12T04:18:35.893Z,941.30
2018-05-12T04:19:44.568Z,941.29
2018-05-12T04:20:52.040Z,941.29
2018-05-12T04:22:00.169Z,941.26
2018-05-12T04:23:08.136Z,941.29
2018-05-12T04:24:16.215Z,941.26
2018-05-12T04:25:24.271Z,941.29
2018-05-12T04:26:32.301Z,941.32
2018-05-12T04:27:40.477Z,941.31
2018-05-12T04:28:48.436Z,941.34
2018-05-12T04:29:56.505Z,941.31
2018-05-12T04:31:04.563Z,941.32
2018-05-12T04:32:12.614Z,941.34
2018-05-12T04:33:20.775Z,941.33
2018-05-12T04:34:28.734Z,941.36
2018-05-12T04:35:36.802Z,941.32
2018-05-12T04:36:44.863Z,941.41
2018-05-12T04:37:52.933Z,941.44
2018-05-12T04:39:01.078Z,941.38
2018-05-12T04:40:09.059Z,941.44
2018-05-12T04:41:17.140Z,941.43
2018-05-12T04:42:25.160Z,941.44
2018-05-12T04:43:33.327Z,941.46
2018-05-12T04:44:41.786Z,941.43
2018-05-12T04:45:49.602Z,941.41
2018-05-12T04:46:57.417Z,941.41
2018-05-12T04:48:05.486Z,941.39
2018-05-12T04:49:13.540Z,941.36
2018-05-12T04:50:21.691Z,941.39
2018-05-12T04:51:29.669Z,941.37
2018-05-12T04:52:37.722Z,941.42
2018-05-12T04:53:45.784Z,941.44
2018-05-12T04:54:53.856Z,941.40
2018-05-12T04:56:01.982Z,941.40
2018-05-12T04:57:09.976Z,941.40
2018-05-12T04:58:18.081Z,941.39
2018-05-12T04:59:26.195Z,941.39
2018-05-12T05:00:34.209Z,941.41
2018-05-12T05:01:42.326Z,941.36
2018-05-12T05:02:50.288Z,941.37
2018-05-12T05:03:58.341Z,941.38
2018-05-12T05:05:06.396Z,941.38
2018-05-12T05:06:14.477Z,941.38
2018-05-12T05:07:22.635Z,941.36
2018-05-12T05:08:30.728Z,941.36
2018-05-12T05:09:38.655Z,941.36
2018-05-12T05:10:46.724Z,941.37
2018-05-12T05:11:54.781Z,941.37
2018-05-12T05:13:02.926Z,941.36
2018-05-12T05:14:12.784Z,941.34
2018-05-12T05:15:19.105Z,941.30
2018-05-12T05:16:27.043Z,941.29
2018-05-12T05:17:35.381Z,941.28
2018-05-12T05:18:43.870Z,941.28
2018-05-12T05:19:51.218Z,941.26
2018-05-12T05:20:59.287Z,941.30
2018-05-12T05:22:07.336Z,941.27
2018-05-12T05:23:15.415Z,941.30
2018-05-12T05:24:23.564Z,941.26
2018-05-12T05:25:31.506Z,941.28
2018-05-12T05:26:39.594Z,941.20
2018-05-12T05:27:47.659Z,941.17
2018-05-12T05:28:55.716Z,941.18
2018-05-12T05:30:03.874Z,941.18
2018-05-12T05:31:11.927Z,941.16
2018-05-12T05:32:19.914Z,941.17
2018-05-12T05:33:27.981Z,941.22
2018-05-12T05:34:36.029Z,941.20
2018-05-12T05:35:44.194Z,941.20
2018-05-12T05:36:52.123Z,941.20
2018-05-12T05:38:00.226Z,941.17
2018-05-12T05:39:08.277Z,941.17
2018-05-12T05:40:16.333Z,941.21
2018-05-12T05:41:24.508Z,941.25
2018-05-12T05:42:32.462Z,941.23
2018-05-12T05:43:40.545Z,941.22
2018-05-12T05:44:48.672Z,941.25
2018-05-12T05:45:56.656Z,941.24
2018-05-12T05:47:04.819Z,941.24
2018-05-12T05:48:12.787Z,941.21
2018-05-12T05:49:20.840Z,941.26
2018-05-12T05:50:28.919Z,941.26
2018-05-12T05:51:36.966Z,941.27
2018-05-12T05:52:45.261Z,941.28
2018-05-12T05:53:53.098Z,941.29
2018-05-12T05:55:01.685Z,941.28
2018-05-12T05:56:09.225Z,941.30
2018-05-12T05:57:17.279Z,941.30
2018-05-12T05:58:25.505Z,941.30
2018-05-12T05:59:33.409Z,941.29
2018-05-12T06:00:41.454Z,941.33
2018-05-12T06:01:49.986Z,941.32
2018-05-12T06:02:57.701Z,941.38
2018-05-12T06:04:05.758Z,941.36
2018-05-12T06:05:13.731Z,941.38
2018-05-12T06:06:21.768Z,941.36
2018-05-12T06:07:29.857Z,941.36
2018-05-12T06:08:37.909Z,941.37
2018-05-12T06:09:46.075Z,941.36
2018-05-12T06:10:54.032Z,941.36
2018-05-12T06:12:02.094Z,941.35
2018-05-12T06:13:10.183Z,941.39
2018-05-12T06:14:18.235Z,941.34
2018-05-12T06:15:26.394Z,941.36
2018-05-12T06:16:34.368Z,941.40
2018-05-12T06:17:42.419Z,941.39
2018-05-12T06:18:50.696Z,941.41
2018-05-12T06:19:58.548Z,941.40
2018-05-12T06:21:06.706Z,941.39
2018-05-12T06:22:14.685Z,941.45
2018-05-12T06:23:22.750Z,941.51
2018-05-12T06:24:31.472Z,941.52
2018-05-12T06:25:38.874Z,941.48
2018-05-12T06:26:47.020Z,941.52
2018-05-12T06:27:55.006Z,941.52
2018-05-12T06:29:03.059Z,941.54
2018-05-12T06:30:11.131Z,941.53
2018-05-12T06:31:19.195Z,941.55
2018-05-12T06:32:27.352Z,941.56
2018-05-12T06:33:35.408Z,941.51
2018-05-12T06:34:43.676Z,941.51
2018-05-12T06:35:51.451Z,941.56
2018-05-12T06:36:59.515Z,941.57
2018-05-12T06:38:07.676Z,941.57
2018-05-12T06:39:15.643Z,941.62
2018-05-12T06:40:23.695Z,941.61
2018-05-12T06:41:31.974Z,941.62
2018-05-12T06:42:42.158Z,941.60
2018-05-12T06:43:47.988Z,941.64
2018-05-12T06:44:55.964Z,941.61
2018-05-12T06:46:04.026Z,941.63
2018-05-12T06:47:12.078Z,941.57
2018-05-12T06:48:20.176Z,941.60
2018-05-12T06:49:28.317Z,941.63
2018-05-12T06:50:36.379Z,941.61
2018-05-12T06:51:44.352Z,941.62
2018-05-12T06:52:52.496Z,941.67
2018-05-12T06:54:00.502Z,941.61
2018-05-12T06:55:08.647Z,941.62
2018-05-12T06:56:16.605Z,941.64
2018-05-12T06:57:24.669Z,941.65
2018-05-12T06:58:32.749Z,941.64
2018-05-12T06:59:40.802Z,941.65
2018-05-12T07:00:49.335Z,941.62
2018-05-12T07:01:56.937Z,941.62
2018-05-12T07:03:04.995Z,941.63
2018-05-12T07:04:13.071Z,941.64
2018-05-12T07:05:21.136Z,941.62
2018-05-12T07:06:29.293Z,941.61
2018-05-12T07:07:37.255Z,941.61
2018-05-12T07:08:45.334Z,941.65
2018-05-12T07:09:53.408Z,941.63
2018-05-12T07:11:01.692Z,941.68
2018-05-12T07:12:09.627Z,941.68
2018-05-12T07:13:17.590Z,941.69
2018-05-12T07:14:25.662Z,941.75
2018-05-12T07:15:33.729Z,941.66
2018-05-12T07:16:41.780Z,941.68
2018-05-12T07:17:50.118Z,941.87
2018-05-12T07:18:57.924Z,941.94
2018-05-12T07:20:05.992Z,942.03
2018-05-12T07:21:14.061Z,942.21
2018-05-12T07:22:22.210Z,942.57
2018-05-12T07:23:30.287Z,942.94
2018-05-12T07:24:38.255Z,943.27
2018-05-12T07:25:46.327Z,943.44
2018-05-12T07:26:54.384Z,942.89
2018-05-12T07:28:02.459Z,942.29
2018-05-12T07:29:10.642Z,942.70
2018-05-12T07:30:18.598Z,943.29
2018-05-12T07:31:26.668Z,943.12
2018-05-12T07:32:34.755Z,943.29
2018-05-12T07:33:42.824Z,943.90
2018-05-12T07:34:50.987Z,944.15
2018-05-12T07:35:58.970Z,944.21
2018-05-12T07:37:07.019Z,944.28
2018-05-12T07:38:15.183Z,944.28
2018-05-12T07:39:23.166Z,943.75
2018-05-12T07:40:31.328Z,943.05
2018-05-12T07:41:39.316Z,942.74
2018-05-12T07:42:47.402Z,942.95
2018-05-12T07:43:55.592Z,943.26
2018-05-12T07:45:03.602Z,943.44
2018-05-12T07:46:11.704Z,943.29
2018-05-12T07:47:19.686Z,942.61
2018-05-12T07:48:27.758Z,942.00
2018-05-12T07:49:35.850Z,942.05
2018-05-12T07:50:43.904Z,941.72
2018-05-12T07:51:52.052Z,941.83
2018-05-12T07:53:00.061Z,942.73
2018-05-12T07:54:08.222Z,942.86
2018-05-12T07:55:16.205Z,943.54
2018-05-12T07:56:24.285Z,944.79
2018-05-12T07:57:32.433Z,946.95
2018-05-12T07:58:40.424Z,948.34
2018-05-12T07:59:48.496Z,948.51
2018-05-12T08:00:56.569Z,948.74
2018-05-12T08:02:04.651Z,949.01
2018-05-12T08:03:12.816Z,949.54
2018-05-12T08:04:20.796Z,950.08
2018-05-12T08:05:28.879Z,950.14
2018-05-12T08:06:36.954Z,950.41
2018-05-12T08:07:45.024Z,951.13
2018-05-12T08:08:53.225Z,951.02
2018-05-12T08:10:01.385Z,950.37
2018-05-12T08:11:09.269Z,950.63
2018-05-12T08:12:17.328Z,951.37
2018-05-12T08:13:25.412Z,951.08
2018-05-12T08:14:33.593Z,949.69
2018-05-12T08:15:41.554Z,949.07
2018-05-12T08:16:49.645Z,949.48
2018-05-12T08:17:57.727Z,949.36
2018-05-12T08:19:05.800Z,949.22
2018-05-12T08:20:13.973Z,949.75
2018-05-12T08:21:21.926Z,949.52
2018-05-12T08:22:30.042Z,947.78
2018-05-12T08:23:38.132Z,946.77
2018-05-12T08:24:46.213Z,946.90
2018-05-12T08:25:54.520Z,948.21
2018-05-12T08:27:02.364Z,950.94
2018-05-12T08:28:10.458Z,952.56
2018-05-12T08:29:18.523Z,952.51
2018-05-12T08:30:26.601Z,952.21
2018-05-12T08:31:34.877Z,951.68
2018-05-12T08:32:42.775Z,952.01
2018-05-12T08:33:50.847Z,952.08
2018-05-12T08:34:58.943Z,951.10
2018-05-12T08:36:07.017Z,950.00
2018-05-12T08:37:15.207Z,949.64
2018-05-12T08:38:23.172Z,949.38
2018-05-12T08:39:31.257Z,948.92
2018-05-12T08:40:39.348Z,948.52
2018-05-12T08:41:47.528Z,948.22
2018-05-12T08:42:55.597Z,948.02
2018-05-12T08:44:03.586Z,947.10
2018-05-12T08:45:11.658Z,945.73
2018-05-12T08:46:19.763Z,945.09
2018-05-12T08:47:27.835Z,945.42
2018-05-12T08:48:36.016Z,945.48
2018-05-12T08:49:43.999Z,945.22
2018-05-12T08:50:52.077Z,945.05
2018-05-12T08:52:00.166Z,945.08
2018-05-12T08:53:08.237Z,945.25
2018-05-12T08:54:16.415Z,945.59
2018-05-12T08:55:24.450Z,945.77
2018-05-12T08:56:32.480Z,946.14
2018-05-12T08:57:40.679Z,946.25
2018-05-12T08:58:48.655Z,946.34
2018-05-12T08:59:56.841Z,946.67
2018-05-12T09:01:04.816Z,946.47
2018-05-12T09:02:12.911Z,946.21
2018-05-12T09:03:20.977Z,945.65
2018-05-12T09:04:29.071Z,944.86
2018-05-12T09:05:37.249Z,944.43
2018-05-12T09:06:45.218Z,944.09
2018-05-12T09:07:53.314Z,942.30
2018-05-12T09:09:01.368Z,941.09
2018-05-12T09:10:09.474Z,941.04
2018-05-12T09:11:17.653Z,941.07
2018-05-12T09:12:25.619Z,941.07
2018-05-12T09:13:33.806Z,940.98
2018-05-12T09:14:41.780Z,940.97
2018-05-12T09:15:49.859Z,940.97
2018-05-12T09:16:58.045Z,941.04
2018-05-12T09:18:06.019Z,940.99
2018-05-12T09:19:14.154Z,940.97
2018-05-12T09:20:22.167Z,940.91
2018-05-12T09:21:30.262Z,940.96
2018-05-12T09:22:38.439Z,940.87
2018-05-12T09:23:46.410Z,940.88
2018-05-12T09:24:54.477Z,940.81
2018-05-12T09:26:02.558Z,940.82
2018-05-12T09:27:10.620Z,940.82
2018-05-12T09:28:18.798Z,940.70
2018-05-12T09:29:26.874Z,940.81
2018-05-12T09:30:34.853Z,940.81
2018-05-12T09:31:42.923Z,940.79
2018-05-12T09:32:50.998Z,940.80
2018-05-12T09:33:59.177Z,940.73
2018-05-12T09:35:07.142Z,940.75
2018-05-12T09:36:15.213Z,940.72
2018-05-12T09:37:23.293Z,940.72
2018-05-12T09:38:31.361Z,940.66
2018-05-12T09:39:39.548Z,940.68
2018-05-12T09:40:47.507Z,940.70
2018-05-12T09:41:55.577Z,940.65
2018-05-12T09:43:03.655Z,940.64
2018-05-12T09:44:11.701Z,940.60
2018-05-12T09:45:20.028Z,940.64
2018-05-12T09:46:27.877Z,940.59
2018-05-12T09:47:35.960Z,940.60
2018-05-12T09:48:44.019Z,940.56
2018-05-12T09:49:52.079Z,940.57
2018-05-12T09:51:00.389Z,940.52
2018-05-12T09:52:08.228Z,940.51
2018-05-12T09:53:16.309Z,940.53
2018-05-12T09:54:24.383Z,940.49
2018-05-12T09:55:32.442Z,940.45
2018-05-12T09:56:40.639Z,940.48
2018-05-12T09:57:48.594Z,940.42
2018-05-12T09:58:56.665Z,940.43
2018-05-12T10:00:04.740Z,940.40
2018-05-12T10:01:12.907Z,940.44
2018-05-12T10:02:21.062Z,940.38
2018-05-12T10:03:29.072Z,940.37
2018-05-12T10:04:37.022Z,940.37
2018-05-12T10:05:45.101Z,940.37
2018-05-12T10:06:53.172Z,940.40
2018-05-12T10:08:01.449Z,940.36
2018-05-12T10:09:09.305Z,940.38
2018-05-12T10:10:17.420Z,940.36
2018-05-12T10:11:25.466Z,940.32
2018-05-12T10:12:33.521Z,940.31
2018-05-12T10:13:41.679Z,940.24
2018-05-12T10:14:49.663Z,940.18
2018-05-12T10:15:57.740Z,940.17
2018-05-12T10:17:05.916Z,940.21
2018-05-12T10:18:13.954Z,940.21
2018-05-12T10:19:22.052Z,940.10
2018-05-12T10:20:30.028Z,940.16
2018-05-12T10:21:38.119Z,940.15
2018-05-12T10:22:46.162Z,940.12
2018-05-12T10:23:54.235Z,940.10
2018-05-12T10:25:02.542Z,940.05
2018-05-12T10:26:10.396Z,940.05
2018-05-12T10:27:18.454Z,940.00
2018-05-12T10:28:26.520Z,939.99
2018-05-12T10:29:34.752Z,940.04
2018-05-12T10:30:42.763Z,940.05
2018-05-12T10:31:50.727Z,940.03
2018-05-12T10:32:58.910Z,940.02
2018-05-12T10:34:06.876Z,940.00
2018-05-12T10:35:14.962Z,939.97
2018-05-12T10:36:23.121Z,939.93
2018-05-12T10:37:31.094Z,939.97
2018-05-12T10:38:39.178Z,939.96
2018-05-12T10:39:47.237Z,939.94
2018-05-12T10:40:55.336Z,939.94
2018-05-12T10:42:03.488Z,939.89
2018-05-12T10:43:11.427Z,939.89
2018-05-12T10:44:19.521Z,939.90
2018-05-12T10:45:27.673Z,939.87
2018-05-12T10:46:35.673Z,939.83
2018-05-12T10:47:43.834Z,939.82
2018-05-12T10:48:51.900Z,939.83
2018-05-12T10:49:59.878Z,939.80
2018-05-12T10:51:07.939Z,939.81
2018-05-12T10:52:16.026Z,939.78
2018-05-12T10:53:24.178Z,939.81
2018-05-12T10:54:32.125Z,939.81
2018-05-12T10:55:40.236Z,939.80
2018-05-12T10:56:48.304Z,939.68
2018-05-12T10:57:56.392Z,939.77
2018-05-12T10:59:04.553Z,939.75
2018-05-12T11:00:12.523Z,939.65
2018-05-12T11:01:20.583Z,939.66
2018-05-12T11:02:28.656Z,939.66
2018-05-12T11:03:36.724Z,939.64
2018-05-12T11:04:45.028Z,939.66
2018-05-12T11:05:52.879Z,939.60
2018-05-12T11:07:00.956Z,939.59
2018-05-12T11:08:09.008Z,939.61
2018-05-12T11:09:17.077Z,939.65
2018-05-12T11:10:25.245Z,939.68
2018-05-12T11:11:33.228Z,939.54
2018-05-12T11:12:41.310Z,939.47
2018-05-12T11:13:49.369Z,939.46
2018-05-12T11:14:57.441Z,939.47
2018-05-12T11:16:05.714Z,939.55
2018-05-12T11:17:13.585Z,939.51
2018-05-12T11:18:21.631Z,939.48
2018-05-12T11:19:29.723Z,939.44
2018-05-12T11:20:37.896Z,939.42
2018-05-12T11:21:46.190Z,939.46
2018-05-12T11:22:53.929Z,939.54
2018-05-12T11:24:01.996Z,939.44
2018-05-12T11:25:10.061Z,939.37
2018-05-12T11:26:18.159Z,939.33
2018-05-12T11:27:26.323Z,939.33
2018-05-12T11:28:34.276Z,939.24
2018-05-12T11:29:42.361Z,939.24
2018-05-12T11:30:50.434Z,939.17
2018-05-12T11:31:58.505Z,939.14
2018-05-12T11:33:06.693Z,939.20
2018-05-12T11:34:14.656Z,939.17
2018-05-12T11:35:22.723Z,939.15
2018-05-12T11:36:30.876Z,939.14
2018-05-12T11:37:38.874Z,939.10
2018-05-12T11:38:47.127Z,939.10
2018-05-12T11:39:54.991Z,939.10
2018-05-12T11:41:03.072Z,939.09
2018-05-12T11:42:11.150Z,939.01
2018-05-12T11:43:19.221Z,939.04
2018-05-12T11:44:27.413Z,939.03
2018-05-12T11:45:35.365Z,939.02
2018-05-12T11:46:43.432Z,938.98
2018-05-12T11:47:51.478Z,938.96
2018-05-12T11:48:59.583Z,939.00
2018-05-12T11:50:07.868Z,938.99
2018-05-12T11:51:15.719Z,938.99
2018-05-12T11:52:23.895Z,938.95
2018-05-12T11:53:31.847Z,939.00
2018-05-12T11:54:39.933Z,939.00
2018-05-12T11:55:48.110Z,938.97
2018-05-12T11:56:56.087Z,938.89
2018-05-12T11:58:04.154Z,938.86
2018-05-12T11:59:12.218Z,938.82
2018-05-12T12:00:20.315Z,938.88
2018-05-12T12:01:28.477Z,938.88
2018-05-12T12:02:36.563Z,938.84
2018-05-12T12:03:44.522Z,938.86
2018-05-12T12:04:52.586Z,938.85
2018-05-12T12:06:00.654Z,938.81
2018-05-12T12:07:08.948Z,938.82
2018-05-12T12:08:17.013Z,938.76
2018-05-12T12:09:24.866Z,938.70
2018-05-12T12:10:32.951Z,938.70
2018-05-12T12:11:41.011Z,938.77
2018-05-12T12:12:49.188Z,938.87
2018-05-12T12:13:57.153Z,938.85
2018-05-12T12:15:05.235Z,938.86
2018-05-12T12:16:13.300Z,938.78
2018-05-12T12:17:21.363Z,938.72
2018-05-12T12:18:29.927Z,938.73
2018-05-12T12:19:37.527Z,938.75
2018-05-12T12:20:45.586Z,938.68
2018-05-12T12:21:53.644Z,938.67
2018-05-12T12:23:01.718Z,938.67
2018-05-12T12:24:10.030Z,938.64
2018-05-12T12:25:17.871Z,938.51
2018-05-12T12:26:25.962Z,938.51
2018-05-12T12:27:34.012Z,938.49
2018-05-12T12:28:42.075Z,938.50
2018-05-12T12:29:50.243Z,938.46
2018-05-12T12:30:58.218Z,938.51
2018-05-12T12:32:06.306Z,938.52
2018-05-12T12:33:14.383Z,938.51
2018-05-12T12:34:22.431Z,938.49
2018-05-12T12:35:30.615Z,938.44
2018-05-12T12:36:38.580Z,938.50
2018-05-12T12:37:46.657Z,938.37
2018-05-12T12:38:54.733Z,938.36
2018-05-12T12:40:02.905Z,938.41
2018-05-12T12:41:10.968Z,938.40
2018-05-12T12:42:18.929Z,938.37
2018-05-12T12:43:27.016Z,938.40
2018-05-12T12:44:35.085Z,938.38
2018-05-12T12:45:43.164Z,938.33
2018-05-12T12:46:51.311Z,938.31
2018-05-12T12:47:59.298Z,938.28
2018-05-12T12:49:07.372Z,938.31
2018-05-12T12:50:15.438Z,938.24
2018-05-12T12:51:23.505Z,938.28
2018-05-12T12:52:31.662Z,938.22
2018-05-12T12:53:39.642Z,938.25
2018-05-12T12:54:47.708Z,938.20
2018-05-12T12:55:55.880Z,938.17
2018-05-12T12:57:03.859Z,938.12
2018-05-12T12:58:12.017Z,938.18
2018-05-12T12:59:19.996Z,938.15
2018-05-12T13:00:28.058Z,938.19
2018-05-12T13:01:36.143Z,938.12
2018-05-12T13:02:44.221Z,938.09
2018-05-12T13:03:52.377Z,938.05
2018-05-12T13:05:00.376Z,938.02
2018-05-12T13:06:08.430Z,938.00
2018-05-12T13:07:16.494Z,937.99
2018-05-12T13:08:24.570Z,938.00
2018-05-12T13:09:32.737Z,938.03
2018-05-12T13:10:40.710Z,937.95
2018-05-12T13:11:49.024Z,937.96
2018-05-12T13:12:56.857Z,937.93
2018-05-12T13:14:04.927Z,937.92
2018-05-12T13:15:13.102Z,937.98
2018-05-12T13:16:21.067Z,937.98
2018-05-12T13:17:29.144Z,937.93
2018-05-12T13:18:37.209Z,937.94
2018-05-12T13:19:45.272Z,937.98
2018-05-12T13:20:53.457Z,938.04
2018-05-12T13:22:01.479Z,937.98
2018-05-12T13:23:09.498Z,937.96
2018-05-12T13:24:17.581Z,938.00
2018-05-12T13:25:25.645Z,938.02
2018-05-12T13:26:33.804Z,938.01
2018-05-12T13:27:42.010Z,937.97
2018-05-12T13:28:49.862Z,937.91
2018-05-12T13:29:57.923Z,937.88
2018-05-12T13:31:05.991Z,937.87
2018-05-12T13:32:14.694Z,937.88
2018-05-12T13:33:22.139Z,937.78
2018-05-12T13:34:30.212Z,937.76
2018-05-12T13:35:38.281Z,937.71
2018-05-12T13:36:46.346Z,937.75
2018-05-12T13:37:54.520Z,937.74
2018-05-12T13:39:02.508Z,937.72
2018-05-12T13:40:10.563Z,937.70
2018-05-12T13:41:18.636Z,937.71
2018-05-12T13:42:26.694Z,937.71
2018-05-12T13:43:35.017Z,937.74
2018-05-12T13:44:42.866Z,937.71
2018-05-12T13:45:50.929Z,937.73
2018-05-12T13:46:58.998Z,937.59
2018-05-12T13:48:07.063Z,937.50
2018-05-12T13:49:15.239Z,937.51
2018-05-12T13:50:23.198Z,937.53
2018-05-12T13:51:31.275Z,937.50
2018-05-12T13:52:39.370Z,937.51
2018-05-12T13:53:47.427Z,937.53
2018-05-12T13:54:55.600Z,937.59
2018-05-12T13:56:03.573Z,937.63
2018-05-12T13:57:11.623Z,937.58
2018-05-12T13:58:19.721Z,937.61
2018-05-12T13:59:27.872Z,937.55
2018-05-12T14:00:35.958Z,937.54
2018-05-12T14:01:43.923Z,937.59
2018-05-12T14:02:51.977Z,937.57
2018-05-12T14:04:00.061Z,937.57
2018-05-12T14:05:08.140Z,937.52
2018-05-12T14:06:16.325Z,937.53
2018-05-12T14:07:24.306Z,937.47
2018-05-12T14:08:32.346Z,937.49
2018-05-12T14:09:40.415Z,937.36